Terminal Aerodrome Forecast
Issued by NWS

Home | Current Version | Previous Version | Text Only | Print | Product List | Glossary On
Versions: 1 2 3 4 5 6 7 8 9 10 11 12 13 14 15 16 17 18 19 20 21 22 23 24 25
000
FTUS43 KAPX 250526
TAFPLN
TAF
KPLN 250526Z 2506/2606 29010G18KT P6SM OVC007
     FM250800 29011G20KT P6SM OVC018
     FM251300 26012G22KT P6SM OVC028
     FM252300 23010KT P6SM BKN035 OVC110=

USA.gov is the U.S. government's official web portal to all federal, state and local government web resources and services.